sensor_id;sensor_type;location;lat;lon;timestamp;P1;durP1;ratioP1;P2;durP2;ratioP2
75054;SDS011;63636;44.746;10.488;2023-04-23T00:00:25;17.73;;;12.38;;
75054;SDS011;63636;44.746;10.488;2023-04-23T00:02:51;18.98;;;12.48;;
75054;SDS011;63636;44.746;10.488;2023-04-23T00:05:17;19.20;;;12.32;;
75054;SDS011;63636;44.746;10.488;2023-04-23T00:07:43;18.02;;;12.60;;
75054;SDS011;63636;44.746;10.488;2023-04-23T00:10:09;18.63;;;12.27;;
75054;SDS011;63636;44.746;10.488;2023-04-23T00:12:34;19.00;;;12.63;;
75054;SDS011;63636;44.746;10.488;2023-04-23T00:15:00;19.02;;;12.52;;
75054;SDS011;63636;44.746;10.488;2023-04-23T00:17:26;19.67;;;12.35;;
75054;SDS011;63636;44.746;10.488;2023-04-23T00:19:52;19.00;;;12.52;;
75054;SDS011;63636;44.746;10.488;2023-04-23T00:22:17;19.15;;;12.90;;
75054;SDS011;63636;44.746;10.488;2023-04-23T00:24:44;20.92;;;12.70;;
75054;SDS011;63636;44.746;10.488;2023-04-23T00:27:10;18.13;;;12.68;;
75054;SDS011;63636;44.746;10.488;2023-04-23T00:29:35;18.20;;;12.68;;
75054;SDS011;63636;44.746;10.488;2023-04-23T00:32:01;16.40;;;11.80;;
75054;SDS011;63636;44.746;10.488;2023-04-23T00:34:27;16.67;;;11.80;;
75054;SDS011;63636;44.746;10.488;2023-04-23T00:36:53;16.67;;;11.85;;
75054;SDS011;63636;44.746;10.488;2023-04-23T00:39:18;17.83;;;11.88;;
75054;SDS011;63636;44.746;10.488;2023-04-23T00:41:44;16.80;;;11.80;;
75054;SDS011;63636;44.746;10.488;2023-04-23T00:44:09;16.50;;;11.20;;
75054;SDS011;63636;44.746;10.488;2023-04-23T00:46:36;16.52;;;11.02;;
75054;SDS011;63636;44.746;10.488;2023-04-23T00:49:01;16.58;;;10.63;;
75054;SDS011;63636;44.746;10.488;2023-04-23T00:51:27;16.05;;;10.93;;
75054;SDS011;63636;44.746;10.488;2023-04-23T00:53:53;16.42;;;10.90;;
75054;SDS011;63636;44.746;10.488;2023-04-23T00:56:19;16.92;;;11.27;;
75054;SDS011;63636;44.746;10.488;2023-04-23T00:58:45;14.98;;;10.88;;
75054;SDS011;63636;44.746;10.488;2023-04-23T01:01:11;15.25;;;10.43;;
75054;SDS011;63636;44.746;10.488;2023-04-23T01:03:38;15.68;;;9.65;;
75054;SDS011;63636;44.746;10.488;2023-04-23T01:06:05;16.90;;;10.00;;
75054;SDS011;63636;44.746;10.488;2023-04-23T01:08:31;16.10;;;9.30;;
75054;SDS011;63636;44.746;10.488;2023-04-23T01:10:58;14.55;;;9.50;;
75054;SDS011;63636;44.746;10.488;2023-04-23T01:13:24;13.60;;;9.02;;
75054;SDS011;63636;44.746;10.488;2023-04-23T01:15:54;13.88;;;9.25;;
75054;SDS011;63636;44.746;10.488;2023-04-23T01:18:19;12.45;;;8.75;;
75054;SDS011;63636;44.746;10.488;2023-04-23T01:20:45;14.02;;;9.02;;
75054;SDS011;63636;44.746;10.488;2023-04-23T01:23:11;12.77;;;8.98;;
75054;SDS011;63636;44.746;10.488;2023-04-23T01:25:37;13.40;;;9.32;;
75054;SDS011;63636;44.746;10.488;2023-04-23T01:28:03;14.55;;;9.48;;
75054;SDS011;63636;44.746;10.488;2023-04-23T01:30:30;13.93;;;9.40;;
75054;SDS011;63636;44.746;10.488;2023-04-23T01:33:00;13.93;;;9.15;;
75054;SDS011;63636;44.746;10.488;2023-04-23T01:35:26;16.27;;;9.60;;
75054;SDS011;63636;44.746;10.488;2023-04-23T01:37:52;14.40;;;9.30;;
75054;SDS011;63636;44.746;10.488;2023-04-23T01:40:19;14.43;;;9.18;;
75054;SDS011;63636;44.746;10.488;2023-04-23T01:42:45;13.13;;;9.32;;
75054;SDS011;63636;44.746;10.488;2023-04-23T01:45:11;15.82;;;9.40;;
75054;SDS011;63636;44.746;10.488;2023-04-23T01:47:36;13.32;;;9.15;;
75054;SDS011;63636;44.746;10.488;2023-04-23T01:50:02;14.50;;;9.15;;
75054;SDS011;63636;44.746;10.488;2023-04-23T01:52:29;14.55;;;8.52;;
75054;SDS011;63636;44.746;10.488;2023-04-23T01:54:55;12.55;;;8.38;;
75054;SDS011;63636;44.746;10.488;2023-04-23T01:57:20;12.27;;;8.30;;
75054;SDS011;63636;44.746;10.488;2023-04-23T01:59:51;11.38;;;7.50;;
75054;SDS011;63636;44.746;10.488;2023-04-23T02:02:16;11.15;;;7.25;;
75054;SDS011;63636;44.746;10.488;2023-04-23T02:04:43;13.15;;;7.70;;
75054;SDS011;63636;44.746;10.488;2023-04-23T02:07:08;13.05;;;7.20;;
75054;SDS011;63636;44.746;10.488;2023-04-23T02:09:34;11.23;;;7.47;;
75054;SDS011;63636;44.746;10.488;2023-04-23T02:12:00;11.05;;;7.35;;
75054;SDS011;63636;44.746;10.488;2023-04-23T02:14:26;11.77;;;6.88;;
75054;SDS011;63636;44.746;10.488;2023-04-23T02:16:51;10.70;;;6.40;;
75054;SDS011;63636;44.746;10.488;2023-04-23T02:19:17;10.93;;;7.15;;
75054;SDS011;63636;44.746;10.488;2023-04-23T02:21:42;11.40;;;6.85;;
75054;SDS011;63636;44.746;10.488;2023-04-23T02:24:08;10.15;;;6.70;;
75054;SDS011;63636;44.746;10.488;2023-04-23T02:26:35;10.77;;;7.20;;
75054;SDS011;63636;44.746;10.488;2023-04-23T02:29:01;11.10;;;6.80;;
75054;SDS011;63636;44.746;10.488;2023-04-23T02:31:26;10.65;;;7.15;;
75054;SDS011;63636;44.746;10.488;2023-04-23T02:33:53;10.77;;;7.05;;
75054;SDS011;63636;44.746;10.488;2023-04-23T02:36:19;10.48;;;6.75;;
75054;SDS011;63636;44.746;10.488;2023-04-23T02:38:45;10.63;;;6.68;;
75054;SDS011;63636;44.746;10.488;2023-04-23T02:41:12;11.48;;;6.60;;
75054;SDS011;63636;44.746;10.488;2023-04-23T02:43:38;10.40;;;6.93;;
75054;SDS011;63636;44.746;10.488;2023-04-23T02:46:03;10.93;;;7.03;;
75054;SDS011;63636;44.746;10.488;2023-04-23T02:48:41;9.98;;;6.28;;
75054;SDS011;63636;44.746;10.488;2023-04-23T02:51:09;10.82;;;6.72;;
75054;SDS011;63636;44.746;10.488;2023-04-23T02:53:35;10.95;;;6.40;;
75054;SDS011;63636;44.746;10.488;2023-04-23T02:56:01;10.25;;;6.60;;
75054;SDS011;63636;44.746;10.488;2023-04-23T02:58:28;11.60;;;6.82;;
75054;SDS011;63636;44.746;10.488;2023-04-23T03:00:58;11.82;;;6.70;;
75054;SDS011;63636;44.746;10.488;2023-04-23T03:03:25;11.10;;;6.85;;
75054;SDS011;63636;44.746;10.488;2023-04-23T03:05:51;11.93;;;6.90;;
75054;SDS011;63636;44.746;10.488;2023-04-23T03:08:17;12.38;;;8.57;;
75054;SDS011;63636;44.746;10.488;2023-04-23T03:10:43;15.27;;;9.55;;
75054;SDS011;63636;44.746;10.488;2023-04-23T03:13:08;14.70;;;9.70;;
75054;SDS011;63636;44.746;10.488;2023-04-23T03:15:34;15.30;;;10.98;;
75054;SDS011;63636;44.746;10.488;2023-04-23T03:18:00;16.25;;;11.00;;
75054;SDS011;63636;44.746;10.488;2023-04-23T03:20:26;15.30;;;10.73;;
75054;SDS011;63636;44.746;10.488;2023-04-23T03:22:52;15.43;;;10.60;;
75054;SDS011;63636;44.746;10.488;2023-04-23T03:25:18;16.50;;;10.90;;
75054;SDS011;63636;44.746;10.488;2023-04-23T03:27:46;15.13;;;10.38;;
75054;SDS011;63636;44.746;10.488;2023-04-23T03:30:12;16.50;;;11.63;;
75054;SDS011;63636;44.746;10.488;2023-04-23T03:32:38;20.15;;;11.43;;
75054;SDS011;63636;44.746;10.488;2023-04-23T03:35:04;16.15;;;10.80;;
75054;SDS011;63636;44.746;10.488;2023-04-23T03:37:31;17.48;;;11.57;;
75054;SDS011;63636;44.746;10.488;2023-04-23T03:39:56;16.52;;;11.38;;
75054;SDS011;63636;44.746;10.488;2023-04-23T03:42:22;18.58;;;11.93;;
75054;SDS011;63636;44.746;10.488;2023-04-23T03:44:49;17.58;;;11.73;;
75054;SDS011;63636;44.746;10.488;2023-04-23T03:47:14;18.60;;;12.23;;
75054;SDS011;63636;44.746;10.488;2023-04-23T03:49:40;17.80;;;11.93;;
75054;SDS011;63636;44.746;10.488;2023-04-23T03:52:07;16.88;;;11.90;;
75054;SDS011;63636;44.746;10.488;2023-04-23T03:54:36;19.40;;;12.05;;
75054;SDS011;63636;44.746;10.488;2023-04-23T03:57:14;16.73;;;11.77;;
75054;SDS011;63636;44.746;10.488;2023-04-23T04:00:07;17.65;;;11.82;;
75054;SDS011;63636;44.746;10.488;2023-04-23T04:02:38;17.38;;;11.55;;
75054;SDS011;63636;44.746;10.488;2023-04-23T04:05:04;20.05;;;12.48;;
75054;SDS011;63636;44.746;10.488;2023-04-23T04:07:30;19.15;;;13.30;;
75054;SDS011;63636;44.746;10.488;2023-04-23T04:09:56;21.48;;;14.45;;
75054;SDS011;63636;44.746;10.488;2023-04-23T04:12:24;22.95;;;14.90;;
75054;SDS011;63636;44.746;10.488;2023-04-23T04:14:50;23.10;;;14.40;;
75054;SDS011;63636;44.746;10.488;2023-04-23T04:17:15;23.17;;;14.32;;
75054;SDS011;63636;44.746;10.488;2023-04-23T04:19:41;22.38;;;13.75;;
75054;SDS011;63636;44.746;10.488;2023-04-23T04:22:07;24.38;;;13.85;;
75054;SDS011;63636;44.746;10.488;2023-04-23T04:24:33;19.38;;;13.68;;
75054;SDS011;63636;44.746;10.488;2023-04-23T04:27:00;21.02;;;13.05;;
75054;SDS011;63636;44.746;10.488;2023-04-23T04:29:25;20.98;;;13.48;;
75054;SDS011;63636;44.746;10.488;2023-04-23T04:31:52;21.77;;;13.73;;
75054;SDS011;63636;44.746;10.488;2023-04-23T04:34:18;19.83;;;13.55;;
75054;SDS011;63636;44.746;10.488;2023-04-23T04:36:44;21.65;;;12.82;;
75054;SDS011;63636;44.746;10.488;2023-04-23T04:39:10;20.60;;;12.77;;
75054;SDS011;63636;44.746;10.488;2023-04-23T04:41:37;18.20;;;11.85;;
75054;SDS011;63636;44.746;10.488;2023-04-23T04:44:03;18.40;;;12.55;;
75054;SDS011;63636;44.746;10.488;2023-04-23T04:46:29;19.85;;;12.30;;
75054;SDS011;63636;44.746;10.488;2023-04-23T04:48:56;17.65;;;12.32;;
75054;SDS011;63636;44.746;10.488;2023-04-23T04:51:21;19.42;;;12.40;;
75054;SDS011;63636;44.746;10.488;2023-04-23T04:53:47;19.58;;;12.75;;
75054;SDS011;63636;44.746;10.488;2023-04-23T04:56:12;18.60;;;12.75;;
75054;SDS011;63636;44.746;10.488;2023-04-23T04:58:38;20.15;;;12.38;;
75054;SDS011;63636;44.746;10.488;2023-04-23T05:01:03;19.88;;;13.05;;
75054;SDS011;63636;44.746;10.488;2023-04-23T05:03:29;19.25;;;12.18;;
75054;SDS011;63636;44.746;10.488;2023-04-23T05:05:55;17.60;;;11.85;;
75054;SDS011;63636;44.746;10.488;2023-04-23T05:08:23;18.80;;;11.73;;
75054;SDS011;63636;44.746;10.488;2023-04-23T05:10:48;19.00;;;11.85;;
75054;SDS011;63636;44.746;10.488;2023-04-23T05:13:18;15.50;;;10.63;;
75054;SDS011;63636;44.746;10.488;2023-04-23T05:15:44;18.88;;;12.07;;
75054;SDS011;63636;44.746;10.488;2023-04-23T05:18:10;16.05;;;10.63;;
75054;SDS011;63636;44.746;10.488;2023-04-23T05:20:36;14.93;;;10.40;;
75054;SDS011;63636;44.746;10.488;2023-04-23T05:23:02;16.80;;;11.05;;
75054;SDS011;63636;44.746;10.488;2023-04-23T05:25:28;17.48;;;11.18;;
75054;SDS011;63636;44.746;10.488;2023-04-23T05:27:53;15.48;;;10.15;;
75054;SDS011;63636;44.746;10.488;2023-04-23T05:30:19;17.08;;;10.18;;
75054;SDS011;63636;44.746;10.488;2023-04-23T05:32:44;15.38;;;9.73;;
75054;SDS011;63636;44.746;10.488;2023-04-23T05:35:10;15.57;;;10.00;;
75054;SDS011;63636;44.746;10.488;2023-04-23T05:37:36;16.00;;;9.60;;
75054;SDS011;63636;44.746;10.488;2023-04-23T05:40:01;15.38;;;9.32;;
75054;SDS011;63636;44.746;10.488;2023-04-23T05:42:29;16.80;;;9.73;;
75054;SDS011;63636;44.746;10.488;2023-04-23T05:44:55;16.73;;;9.88;;
75054;SDS011;63636;44.746;10.488;2023-04-23T05:47:20;15.23;;;10.05;;
75054;SDS011;63636;44.746;10.488;2023-04-23T05:49:46;16.55;;;9.88;;
75054;SDS011;63636;44.746;10.488;2023-04-23T05:52:11;15.65;;;9.70;;
75054;SDS011;63636;44.746;10.488;2023-04-23T05:54:37;16.73;;;10.70;;
75054;SDS011;63636;44.746;10.488;2023-04-23T05:57:03;17.55;;;10.98;;
75054;SDS011;63636;44.746;10.488;2023-04-23T05:59:29;16.95;;;11.65;;
75054;SDS011;63636;44.746;10.488;2023-04-23T06:01:55;16.48;;;10.30;;
75054;SDS011;63636;44.746;10.488;2023-04-23T06:04:20;17.63;;;10.88;;
75054;SDS011;63636;44.746;10.488;2023-04-23T06:06:46;19.50;;;13.07;;
75054;SDS011;63636;44.746;10.488;2023-04-23T06:09:12;18.95;;;12.82;;
75054;SDS011;63636;44.746;10.488;2023-04-23T06:11:37;19.77;;;13.05;;
75054;SDS011;63636;44.746;10.488;2023-04-23T06:14:03;21.33;;;14.40;;
75054;SDS011;63636;44.746;10.488;2023-04-23T06:16:28;20.77;;;13.32;;
75054;SDS011;63636;44.746;10.488;2023-04-23T06:18:54;20.85;;;14.10;;
75054;SDS011;63636;44.746;10.488;2023-04-23T06:21:20;19.17;;;12.98;;
75054;SDS011;63636;44.746;10.488;2023-04-23T06:23:46;18.48;;;12.57;;
75054;SDS011;63636;44.746;10.488;2023-04-23T06:26:11;19.60;;;13.45;;
75054;SDS011;63636;44.746;10.488;2023-04-23T06:28:37;17.85;;;12.32;;
75054;SDS011;63636;44.746;10.488;2023-04-23T06:31:22;21.67;;;13.93;;
75054;SDS011;63636;44.746;10.488;2023-04-23T06:33:48;22.00;;;15.00;;
75054;SDS011;63636;44.746;10.488;2023-04-23T06:36:14;21.27;;;14.35;;
75054;SDS011;63636;44.746;10.488;2023-04-23T06:38:39;22.05;;;15.05;;
75054;SDS011;63636;44.746;10.488;2023-04-23T06:41:05;22.20;;;14.75;;
75054;SDS011;63636;44.746;10.488;2023-04-23T06:43:31;23.48;;;14.70;;
75054;SDS011;63636;44.746;10.488;2023-04-23T06:46:15;23.90;;;15.05;;
75054;SDS011;63636;44.746;10.488;2023-04-23T06:48:41;23.67;;;15.57;;
75054;SDS011;63636;44.746;10.488;2023-04-23T06:51:06;21.55;;;14.55;;
75054;SDS011;63636;44.746;10.488;2023-04-23T06:53:32;22.45;;;15.25;;
75054;SDS011;63636;44.746;10.488;2023-04-23T06:55:57;21.45;;;14.15;;
75054;SDS011;63636;44.746;10.488;2023-04-23T06:58:23;21.35;;;14.60;;
75054;SDS011;63636;44.746;10.488;2023-04-23T07:00:55;22.88;;;14.63;;
75054;SDS011;63636;44.746;10.488;2023-04-23T07:03:21;22.73;;;14.82;;
75054;SDS011;63636;44.746;10.488;2023-04-23T07:05:47;20.48;;;13.50;;
75054;SDS011;63636;44.746;10.488;2023-04-23T07:08:12;21.27;;;13.70;;
75054;SDS011;63636;44.746;10.488;2023-04-23T07:10:38;19.55;;;12.73;;
75054;SDS011;63636;44.746;10.488;2023-04-23T07:13:04;19.02;;;12.63;;
75054;SDS011;63636;44.746;10.488;2023-04-23T07:15:29;18.42;;;12.68;;
75054;SDS011;63636;44.746;10.488;2023-04-23T07:17:55;17.10;;;11.13;;
75054;SDS011;63636;44.746;10.488;2023-04-23T07:20:20;16.98;;;10.75;;
75054;SDS011;63636;44.746;10.488;2023-04-23T07:22:46;16.38;;;10.95;;
75054;SDS011;63636;44.746;10.488;2023-04-23T07:25:12;15.57;;;10.32;;
75054;SDS011;63636;44.746;10.488;2023-04-23T07:27:37;18.05;;;11.20;;
75054;SDS011;63636;44.746;10.488;2023-04-23T07:30:03;16.20;;;10.45;;
75054;SDS011;63636;44.746;10.488;2023-04-23T07:32:29;15.63;;;10.25;;
75054;SDS011;63636;44.746;10.488;2023-04-23T07:34:54;15.52;;;10.52;;
75054;SDS011;63636;44.746;10.488;2023-04-23T07:37:23;14.43;;;9.88;;
75054;SDS011;63636;44.746;10.488;2023-04-23T07:39:48;13.93;;;9.32;;
75054;SDS011;63636;44.746;10.488;2023-04-23T07:42:14;13.98;;;9.48;;
75054;SDS011;63636;44.746;10.488;2023-04-23T07:44:39;12.98;;;8.93;;
75054;SDS011;63636;44.746;10.488;2023-04-23T07:47:06;15.43;;;9.45;;
75054;SDS011;63636;44.746;10.488;2023-04-23T07:49:32;12.23;;;8.32;;
75054;SDS011;63636;44.746;10.488;2023-04-23T07:51:57;13.50;;;8.13;;
75054;SDS011;63636;44.746;10.488;2023-04-23T07:54:23;12.38;;;7.90;;
75054;SDS011;63636;44.746;10.488;2023-04-23T07:56:48;12.10;;;8.18;;
75054;SDS011;63636;44.746;10.488;2023-04-23T07:59:13;13.65;;;8.10;;
75054;SDS011;63636;44.746;10.488;2023-04-23T08:01:40;11.77;;;7.70;;
75054;SDS011;63636;44.746;10.488;2023-04-23T08:04:06;13.57;;;8.13;;
75054;SDS011;63636;44.746;10.488;2023-04-23T08:06:32;12.73;;;8.23;;
75054;SDS011;63636;44.746;10.488;2023-04-23T08:08:59;13.13;;;8.80;;
75054;SDS011;63636;44.746;10.488;2023-04-23T08:11:25;14.02;;;8.48;;
75054;SDS011;63636;44.746;10.488;2023-04-23T08:13:53;13.63;;;7.97;;
75054;SDS011;63636;44.746;10.488;2023-04-23T08:16:19;13.18;;;8.18;;
75054;SDS011;63636;44.746;10.488;2023-04-23T08:18:44;11.98;;;7.90;;
75054;SDS011;63636;44.746;10.488;2023-04-23T08:21:10;14.52;;;8.52;;
75054;SDS011;63636;44.746;10.488;2023-04-23T08:23:37;11.77;;;7.88;;
75054;SDS011;63636;44.746;10.488;2023-04-23T08:26:02;11.45;;;7.72;;
75054;SDS011;63636;44.746;10.488;2023-04-23T08:28:28;11.18;;;7.28;;
75054;SDS011;63636;44.746;10.488;2023-04-23T08:30:54;14.00;;;8.27;;
75054;SDS011;63636;44.746;10.488;2023-04-23T08:33:19;12.02;;;8.45;;
75054;SDS011;63636;44.746;10.488;2023-04-23T08:35:45;12.55;;;7.95;;
75054;SDS011;63636;44.746;10.488;2023-04-23T08:38:10;16.08;;;9.10;;
75054;SDS011;63636;44.746;10.488;2023-04-23T08:40:36;13.88;;;9.32;;
75054;SDS011;63636;44.746;10.488;2023-04-23T08:43:05;13.85;;;9.20;;
75054;SDS011;63636;44.746;10.488;2023-04-23T08:45:34;39.40;;;29.65;;
75054;SDS011;63636;44.746;10.488;2023-04-23T08:48:05;21.08;;;15.38;;
75054;SDS011;63636;44.746;10.488;2023-04-23T08:50:31;26.95;;;18.52;;
75054;SDS011;63636;44.746;10.488;2023-04-23T08:52:57;14.00;;;10.48;;
75054;SDS011;63636;44.746;10.488;2023-04-23T08:55:23;15.23;;;10.10;;
75054;SDS011;63636;44.746;10.488;2023-04-23T08:57:49;16.83;;;12.98;;
75054;SDS011;63636;44.746;10.488;2023-04-23T09:00:16;12.35;;;8.73;;
75054;SDS011;63636;44.746;10.488;2023-04-23T09:02:45;25.02;;;19.33;;
75054;SDS011;63636;44.746;10.488;2023-04-23T09:05:11;16.77;;;13.02;;
75054;SDS011;63636;44.746;10.488;2023-04-23T09:07:37;27.83;;;17.55;;
75054;SDS011;63636;44.746;10.488;2023-04-23T09:10:04;17.08;;;9.45;;
75054;SDS011;63636;44.746;10.488;2023-04-23T09:12:30;17.30;;;11.90;;
75054;SDS011;63636;44.746;10.488;2023-04-23T09:14:56;9.77;;;6.38;;
75054;SDS011;63636;44.746;10.488;2023-04-23T09:17:21;10.57;;;7.55;;
75054;SDS011;63636;44.746;10.488;2023-04-23T09:19:47;10.98;;;7.15;;
75054;SDS011;63636;44.746;10.488;2023-04-23T09:22:14;10.45;;;7.38;;
75054;SDS011;63636;44.746;10.488;2023-04-23T09:24:40;10.02;;;6.80;;
75054;SDS011;63636;44.746;10.488;2023-04-23T09:27:06;11.43;;;7.70;;
75054;SDS011;63636;44.746;10.488;2023-04-23T09:29:32;18.92;;;8.35;;
75054;SDS011;63636;44.746;10.488;2023-04-23T09:32:05;16.95;;;12.18;;
75054;SDS011;63636;44.746;10.488;2023-04-23T09:36:56;10.10;;;6.30;;
75054;SDS011;63636;44.746;10.488;2023-04-23T09:39:24;9.20;;;6.25;;
75054;SDS011;63636;44.746;10.488;2023-04-23T09:41:50;9.02;;;5.93;;
75054;SDS011;63636;44.746;10.488;2023-04-23T09:44:16;8.90;;;5.15;;
75054;SDS011;63636;44.746;10.488;2023-04-23T09:46:42;8.85;;;5.63;;
75054;SDS011;63636;44.746;10.488;2023-04-23T09:49:08;8.75;;;5.18;;
75054;SDS011;63636;44.746;10.488;2023-04-23T09:51:44;9.68;;;5.93;;
75054;SDS011;63636;44.746;10.488;2023-04-23T09:54:11;9.30;;;5.90;;
75054;SDS011;63636;44.746;10.488;2023-04-23T09:56:37;9.25;;;5.35;;
75054;SDS011;63636;44.746;10.488;2023-04-23T09:59:10;8.75;;;5.07;;
75054;SDS011;63636;44.746;10.488;2023-04-23T10:01:43;9.40;;;5.90;;
75054;SDS011;63636;44.746;10.488;2023-04-23T10:04:11;8.27;;;5.20;;
75054;SDS011;63636;44.746;10.488;2023-04-23T10:06:36;8.07;;;5.60;;
75054;SDS011;63636;44.746;10.488;2023-04-23T10:09:02;14.80;;;9.77;;
75054;SDS011;63636;44.746;10.488;2023-04-23T10:11:28;8.02;;;4.80;;
75054;SDS011;63636;44.746;10.488;2023-04-23T10:13:54;7.10;;;4.20;;
75054;SDS011;63636;44.746;10.488;2023-04-23T10:16:20;9.68;;;6.00;;
75054;SDS011;63636;44.746;10.488;2023-04-23T10:18:46;11.07;;;7.30;;
75054;SDS011;63636;44.746;10.488;2023-04-23T10:21:12;7.78;;;5.18;;
75054;SDS011;63636;44.746;10.488;2023-04-23T10:23:39;23.13;;;20.35;;
75054;SDS011;63636;44.746;10.488;2023-04-23T10:26:07;13.88;;;9.43;;
75054;SDS011;63636;44.746;10.488;2023-04-23T10:28:33;8.40;;;4.20;;
75054;SDS011;63636;44.746;10.488;2023-04-23T10:30:59;6.53;;;3.22;;
75054;SDS011;63636;44.746;10.488;2023-04-23T10:33:26;11.20;;;7.45;;
75054;SDS011;63636;44.746;10.488;2023-04-23T10:35:53;6.00;;;3.40;;
75054;SDS011;63636;44.746;10.488;2023-04-23T10:38:18;13.63;;;9.43;;
75054;SDS011;63636;44.746;10.488;2023-04-23T10:40:45;6.07;;;3.22;;
75054;SDS011;63636;44.746;10.488;2023-04-23T10:43:14;6.57;;;3.65;;
75054;SDS011;63636;44.746;10.488;2023-04-23T10:45:40;7.93;;;4.72;;
75054;SDS011;63636;44.746;10.488;2023-04-23T10:48:05;6.20;;;3.22;;
75054;SDS011;63636;44.746;10.488;2023-04-23T10:50:34;5.88;;;2.58;;
75054;SDS011;63636;44.746;10.488;2023-04-23T10:53:00;5.80;;;3.30;;
75054;SDS011;63636;44.746;10.488;2023-04-23T10:55:27;5.63;;;3.10;;
75054;SDS011;63636;44.746;10.488;2023-04-23T10:58:02;7.70;;;4.20;;
75054;SDS011;63636;44.746;10.488;2023-04-23T11:00:49;5.57;;;2.80;;
75054;SDS011;63636;44.746;10.488;2023-04-23T11:03:28;6.78;;;3.42;;
75054;SDS011;63636;44.746;10.488;2023-04-23T11:05:55;7.43;;;4.60;;
75054;SDS011;63636;44.746;10.488;2023-04-23T11:08:20;4.95;;;2.95;;
75054;SDS011;63636;44.746;10.488;2023-04-23T11:10:55;7.18;;;3.75;;
75054;SDS011;63636;44.746;10.488;2023-04-23T11:13:22;5.80;;;3.35;;
75054;SDS011;63636;44.746;10.488;2023-04-23T11:15:52;6.93;;;3.53;;
75054;SDS011;63636;44.746;10.488;2023-04-23T11:18:53;7.82;;;4.43;;
75054;SDS011;63636;44.746;10.488;2023-04-23T11:21:18;6.90;;;3.00;;
75054;SDS011;63636;44.746;10.488;2023-04-23T11:23:44;5.05;;;2.90;;
75054;SDS011;63636;44.746;10.488;2023-04-23T11:26:10;6.03;;;3.08;;
75054;SDS011;63636;44.746;10.488;2023-04-23T11:28:37;6.18;;;3.20;;
75054;SDS011;63636;44.746;10.488;2023-04-23T11:31:04;10.25;;;3.00;;
75054;SDS011;63636;44.746;10.488;2023-04-23T11:33:29;5.70;;;3.25;;
75054;SDS011;63636;44.746;10.488;2023-04-23T11:35:55;5.80;;;2.70;;
75054;SDS011;63636;44.746;10.488;2023-04-23T11:38:21;6.35;;;3.28;;
75054;SDS011;63636;44.746;10.488;2023-04-23T11:40:46;4.82;;;3.28;;
75054;SDS011;63636;44.746;10.488;2023-04-23T11:43:17;5.50;;;3.22;;
75054;SDS011;63636;44.746;10.488;2023-04-23T11:45:42;6.47;;;3.40;;
75054;SDS011;63636;44.746;10.488;2023-04-23T11:48:08;5.75;;;3.38;;
75054;SDS011;63636;44.746;10.488;2023-04-23T11:50:34;5.32;;;3.13;;
75054;SDS011;63636;44.746;10.488;2023-04-23T11:53:05;5.70;;;3.08;;
75054;SDS011;63636;44.746;10.488;2023-04-23T11:55:31;4.78;;;2.63;;
75054;SDS011;63636;44.746;10.488;2023-04-23T11:57:57;5.47;;;2.55;;
75054;SDS011;63636;44.746;10.488;2023-04-23T12:00:23;4.22;;;2.30;;
75054;SDS011;63636;44.746;10.488;2023-04-23T12:05:15;4.80;;;2.30;;
75054;SDS011;63636;44.746;10.488;2023-04-23T12:07:40;4.75;;;2.25;;
75054;SDS011;63636;44.746;10.488;2023-04-23T12:10:06;5.68;;;3.13;;
75054;SDS011;63636;44.746;10.488;2023-04-23T12:12:32;4.50;;;2.53;;
75054;SDS011;63636;44.746;10.488;2023-04-23T12:15:05;4.88;;;2.70;;
75054;SDS011;63636;44.746;10.488;2023-04-23T12:17:31;5.15;;;2.30;;
75054;SDS011;63636;44.746;10.488;2023-04-23T12:19:56;4.72;;;2.60;;
75054;SDS011;63636;44.746;10.488;2023-04-23T12:22:25;5.82;;;2.70;;
75054;SDS011;63636;44.746;10.488;2023-04-23T12:24:52;4.70;;;2.40;;
75054;SDS011;63636;44.746;10.488;2023-04-23T12:27:19;5.45;;;2.50;;
75054;SDS011;63636;44.746;10.488;2023-04-23T12:29:46;5.22;;;2.40;;
75054;SDS011;63636;44.746;10.488;2023-04-23T12:32:13;3.60;;;2.17;;
75054;SDS011;63636;44.746;10.488;2023-04-23T12:35:00;5.20;;;2.20;;
75054;SDS011;63636;44.746;10.488;2023-04-23T12:37:25;4.40;;;2.30;;
75054;SDS011;63636;44.746;10.488;2023-04-23T12:39:51;3.30;;;2.30;;
75054;SDS011;63636;44.746;10.488;2023-04-23T12:42:18;4.45;;;2.60;;
75054;SDS011;63636;44.746;10.488;2023-04-23T12:44:44;4.25;;;2.28;;
75054;SDS011;63636;44.746;10.488;2023-04-23T12:47:10;5.75;;;2.40;;
75054;SDS011;63636;44.746;10.488;2023-04-23T12:49:37;4.30;;;2.72;;
75054;SDS011;63636;44.746;10.488;2023-04-23T12:52:04;4.43;;;2.53;;
75054;SDS011;63636;44.746;10.488;2023-04-23T12:54:31;4.78;;;2.80;;
75054;SDS011;63636;44.746;10.488;2023-04-23T12:56:57;4.10;;;2.83;;
75054;SDS011;63636;44.746;10.488;2023-04-23T12:59:23;5.80;;;2.67;;
75054;SDS011;63636;44.746;10.488;2023-04-23T13:01:49;4.03;;;2.40;;
75054;SDS011;63636;44.746;10.488;2023-04-23T13:04:15;6.03;;;2.70;;
75054;SDS011;63636;44.746;10.488;2023-04-23T13:06:40;7.25;;;2.97;;
75054;SDS011;63636;44.746;10.488;2023-04-23T13:09:06;5.30;;;3.00;;
75054;SDS011;63636;44.746;10.488;2023-04-23T13:11:35;5.40;;;3.10;;
75054;SDS011;63636;44.746;10.488;2023-04-23T13:14:00;6.90;;;3.63;;
75054;SDS011;63636;44.746;10.488;2023-04-23T13:16:26;7.05;;;3.85;;
75054;SDS011;63636;44.746;10.488;2023-04-23T13:18:51;5.68;;;3.63;;
75054;SDS011;63636;44.746;10.488;2023-04-23T13:21:17;6.03;;;3.67;;
75054;SDS011;63636;44.746;10.488;2023-04-23T13:23:43;7.60;;;4.07;;
75054;SDS011;63636;44.746;10.488;2023-04-23T13:26:08;6.40;;;3.42;;
75054;SDS011;63636;44.746;10.488;2023-04-23T13:28:34;5.60;;;3.40;;
75054;SDS011;63636;44.746;10.488;2023-04-23T13:31:00;4.65;;;2.95;;
75054;SDS011;63636;44.746;10.488;2023-04-23T13:33:26;3.90;;;2.78;;
75054;SDS011;63636;44.746;10.488;2023-04-23T13:35:51;5.80;;;3.50;;
75054;SDS011;63636;44.746;10.488;2023-04-23T13:38:17;5.00;;;3.10;;
75054;SDS011;63636;44.746;10.488;2023-04-23T13:40:42;7.05;;;3.60;;
75054;SDS011;63636;44.746;10.488;2023-04-23T13:43:08;7.03;;;3.75;;
75054;SDS011;63636;44.746;10.488;2023-04-23T13:45:33;6.22;;;3.20;;
75054;SDS011;63636;44.746;10.488;2023-04-23T13:47:59;5.32;;;3.15;;
75054;SDS011;63636;44.746;10.488;2023-04-23T13:50:26;6.53;;;3.17;;
75054;SDS011;63636;44.746;10.488;2023-04-23T13:52:52;5.05;;;2.83;;
75054;SDS011;63636;44.746;10.488;2023-04-23T13:55:17;6.05;;;3.28;;
75054;SDS011;63636;44.746;10.488;2023-04-23T13:57:43;6.00;;;3.45;;
75054;SDS011;63636;44.746;10.488;2023-04-23T14:00:09;5.80;;;3.50;;
75054;SDS011;63636;44.746;10.488;2023-04-23T14:02:36;5.75;;;3.03;;
75054;SDS011;63636;44.746;10.488;2023-04-23T14:05:01;5.55;;;3.50;;
75054;SDS011;63636;44.746;10.488;2023-04-23T14:07:28;7.45;;;4.00;;
75054;SDS011;63636;44.746;10.488;2023-04-23T14:09:55;5.72;;;3.55;;
75054;SDS011;63636;44.746;10.488;2023-04-23T14:12:20;5.95;;;4.00;;
75054;SDS011;63636;44.746;10.488;2023-04-23T14:14:48;4.95;;;3.20;;
75054;SDS011;63636;44.746;10.488;2023-04-23T14:17:14;5.93;;;3.80;;
75054;SDS011;63636;44.746;10.488;2023-04-23T14:19:39;6.43;;;4.50;;
75054;SDS011;63636;44.746;10.488;2023-04-23T14:22:05;8.50;;;4.32;;